Time;durP1;ratioP1;P1;durP2;ratioP2;P2;SDS_P1;SDS_P2;PMS_P1;PMS_P2;Temp;Humidity;BMP_temperature;BMP_pressure;BME280_temperature;BME280_humidity;BME280_pressure;Samples;Min_cycle;Max_cycle;Signal;HPM_P1;HPM_P2
2024/01/12 00:02:03;;;;;;;;;;;;;;;-5.39;100.00;97586.03;5065073;28;20216;-74
2024/01/12 00:04:28;;;;;;;;;;;;;;;-5.40;100.00;97584.38;5064255;28;19944;-76
2024/01/12 00:06:54;;;;;;;;;;;;;;;-5.43;100.00;97583.75;5065024;28;20145;-72
2024/01/12 00:09:20;;;;;;;;;;;;;;;-5.47;100.00;97585.66;5064090;28;19957;-70
2024/01/12 00:11:46;;;;;;;;;;;;;;;-5.49;100.00;97599.44;5029703;28;19940;-70
2024/01/12 00:14:14;;;;;;;;;;;;;;;-5.51;100.00;97587.56;5046349;28;19970;-70
2024/01/12 00:16:47;;;;;;;;;;;;;;;-5.53;100.00;97591.94;5064183;28;20171;-70
2024/01/12 00:19:13;;;;;;;;;;;;;;;-5.53;100.00;97601.34;5064422;28;19960;-70
2024/01/12 00:21:42;;;;;;;;;;;;;;;-5.55;100.00;97603.19;5064794;28;19934;-83
2024/01/12 00:24:08;;;;;;;;;;;;;;;-5.57;100.00;97602.44;5063932;28;19941;-72
2024/01/12 00:26:34;;;;;;;;;;;;;;;-5.58;100.00;97606.75;5064462;28;19978;-76
2024/01/12 00:28:59;;;;;;;;;;;;;;;-5.59;100.00;97607.63;5029704;28;20002;-75
2024/01/12 00:31:25;;;;;;;;;;;;;;;-5.61;100.00;97598.41;5030466;28;19983;-76
2024/01/12 00:33:51;;;;;;;;;;;;;;;-5.63;100.00;97600.25;5063900;28;19945;-76
2024/01/12 00:36:17;;;;;;;;;;;;;;;-5.63;100.00;97597.69;5064590;28;19937;-73
2024/01/12 00:38:43;;;;;;;;;;;;;;;-5.65;100.00;97607.97;5064187;28;20025;-76
2024/01/12 00:41:09;;;;;;;;;;;;;;;-5.65;100.00;97612.28;5064504;28;20264;-70
2024/01/12 00:43:34;;;;;;;;;;;;;;;-5.67;100.00;97609.81;5051214;28;19949;-71
2024/01/12 00:46:02;;;;;;;;;;;;;;;-5.67;100.00;97616.66;5050710;28;19936;-71
2024/01/12 00:48:28;;;;;;;;;;;;;;;-5.68;100.00;97609.91;5050192;28;20109;-71
2024/01/12 00:50:53;;;;;;;;;;;;;;;-5.69;100.00;97606.53;5050140;28;19943;-71
2024/01/12 00:53:19;;;;;;;;;;;;;;;-5.68;100.00;97607.34;5050669;28;19974;-72
2024/01/12 00:55:45;;;;;;;;;;;;;;;-5.69;100.00;97619.31;5033572;28;19944;-71
2024/01/12 00:58:11;;;;;;;;;;;;;;;-5.70;100.00;97610.00;5050677;28;19960;-71
2024/01/12 01:00:37;;;;;;;;;;;;;;;-5.69;100.00;97610.81;5067695;28;19994;-80
2024/01/12 01:03:03;;;;;;;;;;;;;;;-5.69;100.00;97609.09;5033324;28;19994;-77
2024/01/12 01:05:29;;;;;;;;;;;;;;;-5.69;100.00;97613.38;5050146;28;19936;-76
2024/01/12 01:07:55;;;;;;;;;;;;;;;-5.69;100.00;97613.38;5033135;28;20258;-76
2024/01/12 01:10:21;;;;;;;;;;;;;;;-5.68;100.00;97612.47;5050474;28;19938;-77
2024/01/12 01:12:47;;;;;;;;;;;;;;;-5.69;100.00;97615.91;5050376;28;20262;-79
2024/01/12 01:15:14;;;;;;;;;;;;;;;-5.71;100.00;97619.41;5050276;28;20014;-78
2024/01/12 01:17:41;;;;;;;;;;;;;;;-5.71;100.00;97616.03;5067283;28;19968;-85
2024/01/12 01:20:07;;;;;;;;;;;;;;;-5.72;100.00;97616.94;5067777;28;20000;-76
2024/01/12 01:22:34;;;;;;;;;;;;;;;-5.74;100.00;97624.66;5050483;28;19947;-73
2024/01/12 01:25:00;;;;;;;;;;;;;;;-5.75;100.00;97620.47;5033812;28;19939;-74
2024/01/12 01:27:26;;;;;;;;;;;;;;;-5.75;100.00;97627.34;5033611;28;19940;-74
2024/01/12 01:29:52;;;;;;;;;;;;;;;-5.77;100.00;97626.59;5049423;28;19998;-74
2024/01/12 01:32:18;;;;;;;;;;;;;;;-5.80;100.00;97626.75;5033530;28;19937;-73
2024/01/12 01:34:44;;;;;;;;;;;;;;;-5.83;100.00;97622.66;5067033;28;19935;-72
2024/01/12 01:37:10;;;;;;;;;;;;;;;-5.82;100.00;97620.91;5067587;28;20099;-73
2024/01/12 01:39:36;;;;;;;;;;;;;;;-5.81;100.00;97625.13;5049554;28;20028;-72
2024/01/12 01:42:02;;;;;;;;;;;;;;;-5.82;100.00;97615.78;5032953;28;19944;-72
2024/01/12 01:44:28;;;;;;;;;;;;;;;-5.82;100.00;97616.63;5049455;28;20239;-72
2024/01/12 01:46:54;;;;;;;;;;;;;;;-5.82;100.00;97626.84;5049160;28;19939;-72
2024/01/12 01:49:21;;;;;;;;;;;;;;;-5.85;100.00;97619.34;5049734;28;19939;-72
2024/01/12 01:51:47;;;;;;;;;;;;;;;-5.87;100.00;97625.47;5066455;28;20252;-72
2024/01/12 01:54:13;;;;;;;;;;;;;;;-5.89;100.00;97625.53;5066621;28;20254;-78
2024/01/12 01:56:39;;;;;;;;;;;;;;;-5.92;100.00;97621.44;5066656;28;19945;-72
2024/01/12 01:59:06;;;;;;;;;;;;;;;-5.94;100.00;97628.38;5048739;28;19971;-74
2024/01/12 02:01:32;;;;;;;;;;;;;;;-5.98;100.00;97629.47;5067296;28;19962;-74
2024/01/12 02:03:59;;;;;;;;;;;;;;;-6.00;100.00;97631.28;5066504;28;19964;-75
2024/01/12 02:06:25;;;;;;;;;;;;;;;-6.01;100.00;97627.06;5032700;28;19942;-75
2024/01/12 02:08:52;;;;;;;;;;;;;;;-6.01;100.00;97628.81;5066293;28;19947;-74
2024/01/12 02:11:18;;;;;;;;;;;;;;;-6.00;100.00;97636.41;5048692;28;19948;-74
2024/01/12 02:13:44;;;;;;;;;;;;;;;-6.01;100.00;97631.38;5066320;28;20312;-85
2024/01/12 02:16:09;;;;;;;;;;;;;;;-6.02;100.00;97635.66;5066111;28;19966;-86
2024/01/12 02:18:35;;;;;;;;;;;;;;;-6.04;100.00;97632.38;5049046;28;20031;-83
2024/01/12 02:21:01;;;;;;;;;;;;;;;-6.06;100.00;97631.63;5048385;28;19994;-82
2024/01/12 02:23:27;;;;;;;;;;;;;;;-6.10;100.00;97632.72;5065366;28;19984;-82
2024/01/12 02:25:53;;;;;;;;;;;;;;;-6.12;100.00;97624.31;5031790;28;19950;-82
2024/01/12 02:28:19;;;;;;;;;;;;;;;-6.14;100.00;97626.94;5032453;28;19950;-82
2024/01/12 02:30:45;;;;;;;;;;;;;;;-6.14;100.00;97629.50;5048248;28;19935;-77
2024/01/12 02:33:11;;;;;;;;;;;;;;;-6.13;100.00;97628.59;5031729;28;19999;-72
2024/01/12 02:35:37;;;;;;;;;;;;;;;-6.14;100.00;97621.81;5048824;28;19947;-75
2024/01/12 02:38:02;;;;;;;;;;;;;;;-6.16;100.00;97625.38;5048014;28;19978;-75
2024/01/12 02:40:28;;;;;;;;;;;;;;;-6.19;100.00;97634.03;5066097;28;20225;-75
2024/01/12 02:42:55;;;;;;;;;;;;;;;-6.22;100.00;97631.63;5047853;28;19935;-75
2024/01/12 02:45:21;;;;;;;;;;;;;;;-6.24;100.00;97625.78;5032191;28;19963;-75
2024/01/12 02:47:47;;;;;;;;;;;;;;;-6.26;100.00;97626.78;5066104;28;19941;-76
2024/01/12 02:50:13;;;;;;;;;;;;;;;-6.27;100.00;97615.75;5048702;28;20104;-75
2024/01/12 02:52:38;;;;;;;;;;;;;;;-6.27;100.00;97613.22;5065670;28;19936;-71
2024/01/12 02:55:05;;;;;;;;;;;;;;;-6.27;100.00;97622.59;5047635;28;19936;-72
2024/01/12 02:57:31;;;;;;;;;;;;;;;-6.30;100.00;97617.66;5031896;28;19941;-72
2024/01/12 02:59:57;;;;;;;;;;;;;;;-6.33;100.00;97624.56;5048404;28;19941;-71
2024/01/12 03:02:26;;;;;;;;;;;;;;;-6.36;100.00;97629.84;5065428;28;19973;-71
2024/01/12 03:04:52;;;;;;;;;;;;;;;-6.36;100.00;97634.16;5064670;28;19940;-71
2024/01/12 03:07:17;;;;;;;;;;;;;;;-6.37;100.00;97628.19;5065360;28;20103;-72
2024/01/12 03:09:43;;;;;;;;;;;;;;;-6.38;100.00;97630.84;5047112;28;19963;-75
2024/01/12 03:12:09;;;;;;;;;;;;;;;-6.40;100.00;97625.00;5066044;28;19945;-71
2024/01/12 03:14:35;;;;;;;;;;;;;;;-6.42;100.00;97621.72;5030911;28;19945;-71
2024/01/12 03:17:01;;;;;;;;;;;;;;;-6.44;100.00;97614.13;5047451;28;19976;-72
2024/01/12 03:19:27;;;;;;;;;;;;;;;-6.45;100.00;97601.44;5047269;28;20292;-71
2024/01/12 03:21:52;;;;;;;;;;;;;;;-6.46;100.00;97602.38;5065082;28;19980;-71
2024/01/12 03:24:18;;;;;;;;;;;;;;;-6.47;100.00;97605.81;5064892;28;19951;-72
2024/01/12 03:26:44;;;;;;;;;;;;;;;-6.49;100.00;97603.34;5065772;28;20122;-72
2024/01/12 03:29:10;;;;;;;;;;;;;;;-6.50;100.00;97606.00;5047273;28;19957;-71
2024/01/12 03:31:36;;;;;;;;;;;;;;;-6.53;100.00;97594.19;5065586;28;20213;-72
2024/01/12 03:34:02;;;;;;;;;;;;;;;-6.56;100.00;97595.19;5065624;28;19951;-71
2024/01/12 03:36:28;;;;;;;;;;;;;;;-6.57;100.00;97596.13;5064727;28;19935;-72
2024/01/12 03:38:54;;;;;;;;;;;;;;;-6.59;100.00;97603.03;5064638;28;20020;-72
2024/01/12 03:41:20;;;;;;;;;;;;;;;-6.60;100.00;97595.44;5064617;28;19942;-72
2024/01/12 03:43:46;;;;;;;;;;;;;;;-6.61;100.00;97588.72;5064208;28;19940;-72
2024/01/12 03:46:12;;;;;;;;;;;;;;;-6.61;100.00;97581.88;5064828;28;19945;-74
2024/01/12 03:48:40;;;;;;;;;;;;;;;-6.60;100.00;97578.41;5046932;28;19936;-75
2024/01/12 03:51:06;;;;;;;;;;;;;;;-6.61;100.00;97583.59;5064474;28;20255;-74
2024/01/12 03:53:32;;;;;;;;;;;;;;;-6.61;100.00;97589.53;5046919;28;19940;-75
2024/01/12 03:55:57;;;;;;;;;;;;;;;-6.62;100.00;97592.16;5065186;28;20074;-74
2024/01/12 03:58:23;;;;;;;;;;;;;;;-6.63;100.00;97577.78;5064351;28;20194;-74
2024/01/12 04:00:49;;;;;;;;;;;;;;;-6.63;100.00;97582.88;5064636;28;19940;-74
2024/01/12 04:03:15;;;;;;;;;;;;;;;-6.64;100.00;97587.13;5046639;28;19940;-75
2024/01/12 04:05:41;;;;;;;;;;;;;;;-6.65;100.00;97593.16;5046601;28;19939;-75
2024/01/12 04:08:07;;;;;;;;;;;;;;;-6.65;100.00;97582.13;5046700;28;19956;-75
2024/01/12 04:10:32;;;;;;;;;;;;;;;-6.67;100.00;97586.50;5030808;28;19949;-74
2024/01/12 04:12:58;;;;;;;;;;;;;;;-6.68;100.00;97593.28;5029928;28;19939;-76
2024/01/12 04:15:24;;;;;;;;;;;;;;;-6.67;100.00;97589.03;5047045;28;19944;-75
2024/01/12 04:17:50;;;;;;;;;;;;;;;-6.68;100.00;97583.09;5046164;28;19970;-75
2024/01/12 04:20:16;;;;;;;;;;;;;;;-6.66;100.00;97583.03;5046482;28;19950;-75
2024/01/12 04:22:42;;;;;;;;;;;;;;;-6.65;100.00;97587.22;5047141;28;19938;-75
2024/01/12 04:25:08;;;;;;;;;;;;;;;-6.63;100.00;97582.88;5063984;28;19941;-75
2024/01/12 04:27:34;;;;;;;;;;;;;;;-6.63;100.00;97591.34;5064495;28;19945;-74
2024/01/12 04:30:00;;;;;;;;;;;;;;;-6.62;100.00;97603.19;5064470;28;19941;-76
2024/01/12 04:32:26;;;;;;;;;;;;;;;-6.62;100.00;97603.19;5063938;28;20021;-75
2024/01/12 04:34:52;;;;;;;;;;;;;;;-6.65;100.00;97595.69;5046356;28;19934;-76
2024/01/12 04:37:18;;;;;;;;;;;;;;;-6.63;100.00;97598.19;5029544;28;19944;-75
2024/01/12 04:39:44;;;;;;;;;;;;;;;-6.64;100.00;97599.06;5045842;28;20013;-72
2024/01/12 04:42:10;;;;;;;;;;;;;;;-6.66;100.00;97593.22;5064358;28;19942;-76
2024/01/12 04:44:35;;;;;;;;;;;;;;;-6.68;100.00;97589.94;5046820;28;19978;-71
2024/01/12 04:47:01;;;;;;;;;;;;;;;-6.70;100.00;97590.00;5064565;28;19945;-72
2024/01/12 04:49:27;;;;;;;;;;;;;;;-6.71;100.00;97590.94;5046085;28;20212;-71
2024/01/12 04:51:53;;;;;;;;;;;;;;;-6.71;100.00;97597.75;5046311;28;19946;-71
2024/01/12 04:54:19;;;;;;;;;;;;;;;-6.72;100.00;97591.81;5046609;28;19965;-72
2024/01/12 04:56:45;;;;;;;;;;;;;;;-6.73;100.00;97595.28;5063726;28;19945;-72
2024/01/12 04:59:10;;;;;;;;;;;;;;;-6.74;100.00;97602.13;5045910;28;19996;-75
2024/01/12 05:01:36;;;;;;;;;;;;;;;-6.76;100.00;97606.47;5064219;28;19941;-71
2024/01/12 05:04:02;;;;;;;;;;;;;;;-6.79;100.00;97609.19;5045762;28;19943;-72
2024/01/12 05:06:28;;;;;;;;;;;;;;;-6.79;100.00;97610.91;5046593;28;19948;-72
2024/01/12 05:08:54;;;;;;;;;;;;;;;-6.81;100.00;97612.72;5063719;28;19960;-71
2024/01/12 05:11:22;;;;;;;;;;;;;;;-6.84;100.00;97612.91;5064054;28;19949;-71
2024/01/12 05:13:47;;;;;;;;;;;;;;;-6.87;100.00;97613.84;5046548;28;19936;-71
2024/01/12 05:16:13;;;;;;;;;;;;;;;-6.88;100.00;97617.31;5063336;28;19973;-75
2024/01/12 05:18:39;;;;;;;;;;;;;;;-6.90;100.00;97618.31;5063762;28;20271;-71
2024/01/12 05:21:05;;;;;;;;;;;;;;;-6.90;100.00;97615.75;5045754;28;19949;-78
2024/01/12 05:23:31;;;;;;;;;;;;;;;-6.91;100.00;97620.03;5063508;28;19940;-76
2024/01/12 05:25:57;;;;;;;;;;;;;;;-6.91;100.00;97624.31;5063404;28;20236;-75
2024/01/12 05:28:23;;;;;;;;;;;;;;;-6.93;100.00;97637.13;5004896;28;19944;-75
2024/01/12 05:30:49;;;;;;;;;;;;;;;-6.96;100.00;97630.47;5006820;28;19941;-75
2024/01/12 05:33:15;;;;;;;;;;;;;;;-6.96;100.00;97622.81;4973624;28;19939;-75
2024/01/12 05:35:42;;;;;;;;;;;;;;;-6.95;100.00;97626.19;4989650;28;20237;-76
2024/01/12 05:38:08;;;;;;;;;;;;;;;-6.95;100.00;97637.22;4989491;28;19967;-75
2024/01/12 05:40:34;;;;;;;;;;;;;;;-6.95;100.00;97632.13;4990181;28;19992;-74
2024/01/12 05:43:00;;;;;;;;;;;;;;;-6.94;100.00;97636.31;4973408;28;19953;-76
2024/01/12 05:45:26;;;;;;;;;;;;;;;-6.96;100.00;97632.19;4990180;28;19944;-75
2024/01/12 05:47:52;;;;;;;;;;;;;;;-6.97;100.00;97639.03;4989420;28;19957;-75
2024/01/12 05:50:18;;;;;;;;;;;;;;;-6.98;100.00;97629.72;4989663;28;20122;-75
2024/01/12 05:52:46;;;;;;;;;;;;;;;-6.97;100.00;97635.63;5005701;28;19937;-76
2024/01/12 05:55:11;;;;;;;;;;;;;;;-6.98;100.00;97624.63;5005442;28;19940;-77
2024/01/12 05:57:37;;;;;;;;;;;;;;;-6.99;100.00;97612.78;4989971;28;19963;-71
2024/01/12 06:00:04;;;;;;;;;;;;;;;-6.99;100.00;97628.09;5039580;28;19977;-72
2024/01/12 06:02:30;;;;;;;;;;;;;;;-7.02;100.00;97630.78;5067344;28;19943;-71
2024/01/12 06:04:55;;;;;;;;;;;;;;;-7.04;100.00;97635.13;5049425;28;19942;-71
2024/01/12 06:07:21;;;;;;;;;;;;;;;-7.06;100.00;97624.19;5067034;28;19939;-72
2024/01/12 06:09:47;;;;;;;;;;;;;;;-7.07;100.00;97625.13;5048521;28;19961;-72
2024/01/12 06:12:14;;;;;;;;;;;;;;;-7.10;100.00;97619.34;5066384;28;19972;-74
2024/01/12 06:14:40;;;;;;;;;;;;;;;-7.08;100.00;97622.63;5049294;28;19940;-76
2024/01/12 06:17:06;;;;;;;;;;;;;;;-7.11;100.00;97631.28;5066081;28;19969;-76
2024/01/12 06:19:31;;;;;;;;;;;;;;;-7.13;100.00;97633.06;5049110;28;19965;-76
2024/01/12 06:21:57;;;;;;;;;;;;;;;-7.13;100.00;97630.53;5049320;28;19943;-76
2024/01/12 06:24:23;;;;;;;;;;;;;;;-7.14;100.00;97628.84;5048386;28;19945;-76
2024/01/12 06:26:49;;;;;;;;;;;;;;;-7.15;100.00;97627.22;5048840;28;19994;-76
2024/01/12 06:29:15;;;;;;;;;;;;;;;-7.17;100.00;97627.31;5048372;28;19952;-76
2024/01/12 06:31:41;;;;;;;;;;;;;;;-7.18;100.00;97625.66;5031844;28;19970;-77
2024/01/12 06:34:06;;;;;;;;;;;;;;;-7.19;100.00;97620.63;5049007;28;19943;-73
2024/01/12 06:36:32;;;;;;;;;;;;;;;-7.19;100.00;97607.91;5031707;28;19940;-73
2024/01/12 06:38:58;;;;;;;;;;;;;;;-7.20;100.00;97622.38;5046890;28;19956;-73
2024/01/12 06:41:24;;;;;;;;;;;;;;;-7.22;100.00;97628.47;5048161;28;19956;-73
2024/01/12 06:43:50;;;;;;;;;;;;;;;-7.24;100.00;97625.97;5048591;28;19945;-73
2024/01/12 06:46:15;;;;;;;;;;;;;;;-7.26;100.00;97624.41;5032184;28;19963;-74
2024/01/12 06:48:42;;;;;;;;;;;;;;;-7.26;100.00;97626.97;5047877;28;19946;-76
2024/01/12 06:51:08;;;;;;;;;;;;;;;-7.28;100.00;97639.78;5065716;28;19939;-71
2024/01/12 06:53:33;;;;;;;;;;;;;;;-7.30;100.00;97635.66;5065685;28;20221;-74
2024/01/12 06:55:59;;;;;;;;;;;;;;;-7.32;100.00;97637.47;5048484;28;20103;-74
2024/01/12 06:58:25;;;;;;;;;;;;;;;-7.33;100.00;97643.44;5031973;28;20199;-73
2024/01/12 07:00:51;;;;;;;;;;;;;;;-7.33;100.00;97639.16;5031200;28;20030;-73
2024/01/12 07:03:17;;;;;;;;;;;;;;;-7.32;100.00;97633.19;5065622;28;20110;-73
2024/01/12 07:05:45;;;;;;;;;;;;;;;-7.32;100.00;97629.81;5064651;28;20893;-73
2024/01/12 07:08:11;;;;;;;;;;;;;;;-7.32;100.00;97630.63;5064610;28;19960;-73
2024/01/12 07:10:37;;;;;;;;;;;;;;;-7.33;100.00;97634.06;5047411;28;19946;-78
2024/01/12 07:13:03;;;;;;;;;;;;;;;-7.33;100.00;97631.53;5031168;28;20237;-77
2024/01/12 07:15:28;;;;;;;;;;;;;;;-7.33;100.00;97628.97;5048050;28;19944;-79
2024/01/12 07:17:54;;;;;;;;;;;;;;;-7.34;100.00;97629.88;5065026;28;19967;-80
2024/01/12 07:20:20;;;;;;;;;;;;;;;-7.34;100.00;97632.44;5064996;28;20007;-80
2024/01/12 07:22:46;;;;;;;;;;;;;;;-7.34;100.00;97627.34;5065976;28;19951;-82
2024/01/12 07:25:12;;;;;;;;;;;;;;;-7.32;100.00;97625.53;5031150;28;20126;-80
2024/01/12 07:27:38;;;;;;;;;;;;;;;-7.31;100.00;97619.53;5065595;28;19940;-78
2024/01/12 07:30:05;;;;;;;;;;;;;;;-7.29;100.00;97622.81;5030618;28;19942;-74
2024/01/12 07:32:31;;;;;;;;;;;;;;;-7.27;100.00;97632.94;5047767;28;20124;-73
2024/01/12 07:34:56;;;;;;;;;;;;;;;-7.27;100.00;97628.66;5047161;28;19941;-74
2024/01/12 07:37:22;;;;;;;;;;;;;;;-7.25;100.00;97633.69;5030425;28;19945;-75
2024/01/12 07:39:48;;;;;;;;;;;;;;;-7.24;100.00;97635.34;5064698;28;19950;-75
2024/01/12 07:42:14;;;;;;;;;;;;;;;-7.23;100.00;97632.72;5065533;28;20114;-75
2024/01/12 07:44:40;;;;;;;;;;;;;;;-7.19;100.00;97646.13;5064714;28;20010;-72
2024/01/12 07:47:06;;;;;;;;;;;;;;;-7.18;100.00;97643.50;5030815;28;19956;-75
2024/01/12 07:49:32;;;;;;;;;;;;;;;-7.13;100.00;97640.72;5047607;28;19991;-74
2024/01/12 07:51:58;;;;;;;;;;;;;;;-7.09;100.00;97646.50;5064327;28;19948;-73
2024/01/12 07:54:24;;;;;;;;;;;;;;;-7.04;100.00;97652.97;5030228;28;19940;-74
2024/01/12 07:56:50;;;;;;;;;;;;;;;-6.97;100.00;97651.78;5047571;28;20109;-73
2024/01/12 07:59:16;;;;;;;;;;;;;;;-6.87;100.00;97658.94;5046557;28;19957;-73
2024/01/12 08:01:43;;;;;;;;;;;;;;;-6.77;100.00;97653.28;5046609;28;19950;-73
2024/01/12 08:04:09;;;;;;;;;;;;;;;-6.62;100.00;97661.03;5047402;28;19959;-74
2024/01/12 08:06:34;;;;;;;;;;;;;;;-6.47;100.00;97659.41;5030822;28;19947;-72
2024/01/12 08:09:00;;;;;;;;;;;;;;;-6.33;100.00;97667.97;5047291;28;19953;-72
2024/01/12 08:11:26;;;;;;;;;;;;;;;-6.16;100.00;97668.78;5030035;28;19945;-71
2024/01/12 08:13:52;;;;;;;;;;;;;;;-5.99;100.00;97666.13;5063550;28;20215;-72
2024/01/12 08:16:18;;;;;;;;;;;;;;;-5.82;100.00;97672.81;5029583;28;20186;-72
2024/01/12 08:18:44;;;;;;;;;;;;;;;-5.62;100.00;97669.16;5046036;28;19942;-72
2024/01/12 08:21:10;;;;;;;;;;;;;;;-5.41;100.00;97656.88;5046304;28;19944;-75
2024/01/12 08:23:36;;;;;;;;;;;;;;;-5.22;100.00;97659.19;5047181;28;20279;-77
2024/01/12 08:26:01;;;;;;;;;;;;;;;-5.04;100.00;97656.47;5046140;28;19949;-77
2024/01/12 08:28:27;;;;;;;;;;;;;;;-4.88;100.00;97653.84;5046528;28;19945;-78
2024/01/12 08:30:53;;;;;;;;;;;;;;;-4.75;100.00;97639.38;5064261;28;19941;-76
2024/01/12 08:33:19;;;;;;;;;;;;;;;-4.65;100.00;97649.88;5046224;28;19933;-75
2024/01/12 08:35:45;;;;;;;;;;;;;;;-4.55;100.00;97645.84;5029670;28;20006;-75
2024/01/12 08:38:10;;;;;;;;;;;;;;;-4.44;100.00;97630.66;5046999;28;19996;-76
2024/01/12 08:40:36;;;;;;;;;;;;;;;-4.37;100.00;97633.63;5046103;28;19964;-71
2024/01/12 08:43:02;;;;;;;;;;;;;;;-4.28;100.00;97628.78;5046036;28;19939;-77
2024/01/12 08:45:28;;;;;;;;;;;;;;;-4.15;100.00;97631.38;5046338;28;19944;-76
2024/01/12 08:47:54;;;;;;;;;;;;;;;-3.99;100.00;97636.38;5045946;28;19940;-76
2024/01/12 08:50:20;;;;;;;;;;;;;;;-3.75;100.00;97705.75;5046694;28;19978;-76
2024/01/12 08:52:46;;;;;;;;;;;;;;;-3.48;100.00;97643.38;5063789;28;20264;-77
2024/01/12 08:55:12;;;;;;;;;;;;;;;-3.30;100.00;97624.19;5063646;28;19940;-77
2024/01/12 08:57:40;;;;;;;;;;;;;;;-3.19;100.00;97620.91;5046832;28;19940;-74
2024/01/12 09:00:06;;;;;;;;;;;;;;;-3.13;100.00;97609.41;5045826;28;19955;-74
2024/01/12 09:02:32;;;;;;;;;;;;;;;-3.04;100.00;97605.38;5031560;28;19945;-80
2024/01/12 09:04:58;;;;;;;;;;;;;;;-2.92;100.00;97615.66;5068204;28;19935;-81
2024/01/12 09:07:24;;;;;;;;;;;;;;;-2.83;100.00;97626.19;5033350;28;19938;-80
2024/01/12 09:09:50;;;;;;;;;;;;;;;-2.71;100.00;97633.91;5033140;28;19954;-80
2024/01/12 09:12:15;;;;;;;;;;;;;;;-2.59;100.00;97634.78;5049883;28;20285;-81
2024/01/12 09:14:41;;;;;;;;;;;;;;;-2.44;100.00;97635.47;5034029;28;19941;-80
2024/01/12 09:17:07;;;;;;;;;;;;;;;-2.30;100.00;97637.09;5067231;28;19966;-73
2024/01/12 09:19:34;;;;;;;;;;;;;;;-2.20;100.00;97627.81;5067362;28;19969;-71
2024/01/12 09:22:03;;;;;;;;;;;;;;;-2.10;100.00;97623.66;5067392;28;19942;-70
2024/01/12 09:24:28;;;;;;;;;;;;;;;-2.01;100.00;97624.75;5033777;28;19943;-71
2024/01/12 09:26:54;;;;;;;;;;;;;;;-2.06;100.00;97613.97;5033807;28;19941;-71
2024/01/12 09:29:23;;;;;;;;;;;;;;;-2.09;100.00;97627.84;5033155;28;20242;-71
2024/01/12 09:31:49;;;;;;;;;;;;;;;-2.10;100.00;97620.25;5067961;28;19940;-70
2024/01/12 09:34:15;;;;;;;;;;;;;;;-2.05;100.00;97629.28;5067111;28;19938;-76
2024/01/12 09:36:40;;;;;;;;;;;;;;;-2.02;100.00;97628.22;5050357;28;19958;-70
2024/01/12 09:39:06;;;;;;;;;;;;;;;-1.96;100.00;97632.13;5067515;28;19936;-77
2024/01/12 09:41:54;;;;;;;;;;;;;;;-1.79;100.00;97636.06;5049475;28;19940;-77
2024/01/12 09:44:20;;;;;;;;;;;;;;;-1.63;100.00;97618.59;5049815;28;19943;-78
2024/01/12 09:46:58;;;;;;;;;;;;;;;-1.67;100.00;97622.31;5032585;28;19993;-78
2024/01/12 09:49:25;;;;;;;;;;;;;;;-1.60;100.00;97614.97;5033223;28;19949;-79
2024/01/12 09:51:52;;;;;;;;;;;;;;;-1.54;100.00;97604.22;5066797;28;19937;-80
2024/01/12 09:54:17;;;;;;;;;;;;;;;-1.48;100.00;97616.63;5049779;28;19937;-73
2024/01/12 09:56:46;;;;;;;;;;;;;;;-1.36;100.00;97615.72;5066705;28;20007;-71
2024/01/12 09:59:12;;;;;;;;;;;;;;;-1.18;100.00;97610.13;5032843;28;19946;-72
2024/01/12 10:01:42;;;;;;;;;;;;;;;-0.99;100.00;97612.13;5033168;28;19980;-72
2024/01/12 10:04:08;;;;;;;;;;;;;;;-0.75;100.00;97601.72;5049245;28;19941;-72
2024/01/12 10:06:37;;;;;;;;;;;;;;;-0.59;100.00;97597.00;5033015;28;20118;-72
2024/01/12 10:09:04;;;;;;;;;;;;;;;-0.50;100.00;97595.50;5048788;28;19954;-71
2024/01/12 10:11:30;;;;;;;;;;;;;;;-0.43;100.00;97592.28;5032773;28;19944;-73
2024/01/12 10:13:56;;;;;;;;;;;;;;;-0.51;100.00;97592.06;5048464;28;19945;-71
2024/01/12 10:16:27;;;;;;;;;;;;;;;-0.48;100.00;97584.13;5032304;28;19966;-71
2024/01/12 10:18:53;;;;;;;;;;;;;;;-0.54;100.00;97571.72;5049231;28;19947;-71
2024/01/12 10:21:19;;;;;;;;;;;;;;;-0.56;100.00;97583.09;5048474;28;19956;-71
2024/01/12 10:23:45;;;;;;;;;;;;;;;-0.54;100.00;97578.63;5048972;28;19935;-71
2024/01/12 10:26:15;;;;;;;;;;;;;;;-0.43;100.00;97576.81;5066154;28;19941;-71
2024/01/12 10:28:42;;;;;;;;;;;;;;;-0.28;100.00;97561.91;5049205;28;19935;-71
2024/01/12 10:31:08;;;;;;;;;;;;;;;-0.29;100.00;97546.59;5066030;28;19940;-72
2024/01/12 10:33:34;;;;;;;;;;;;;;;-0.31;100.00;97572.47;5048778;28;19935;-73
2024/01/12 10:36:10;;;;;;;;;;;;;;;-0.32;100.00;97564.84;5048930;28;19985;-72
2024/01/12 10:38:39;;;;;;;;;;;;;;;-0.16;100.00;97569.63;5066524;28;19934;-72
2024/01/12 10:41:06;;;;;;;;;;;;;;;-0.01;100.00;97558.06;5047969;28;20131;-73
2024/01/12 10:43:36;;;;;;;;;;;;;;;0.15;100.00;97557.66;5066302;28;19948;-72
2024/01/12 10:46:05;;;;;;;;;;;;;;;0.34;100.00;97562.13;5048877;28;20219;-72
2024/01/12 10:48:33;;;;;;;;;;;;;;;0.53;100.00;97535.63;5066211;28;19946;-82
2024/01/12 10:50:59;;;;;;;;;;;;;;;0.58;100.00;97529.09;5065579;28;19950;-71
2024/01/12 10:53:45;;;;;;;;;;;;;;;0.52;100.00;97537.34;5047792;28;19952;-71
2024/01/12 10:56:12;;;;;;;;;;;;;;;0.58;99.02;97523.94;5065780;28;19945;-72
2024/01/12 10:58:39;;;;;;;;;;;;;;;0.67;100.00;97537.03;5047576;28;19939;-72
2024/01/12 11:01:04;;;;;;;;;;;;;;;0.78;100.00;97534.38;5048222;28;19953;-72
2024/01/12 11:03:31;;;;;;;;;;;;;;;0.74;100.00;97522.69;5065560;28;19937;-72
2024/01/12 11:05:57;;;;;;;;;;;;;;;0.65;99.40;97520.84;5047626;28;19944;-76
2024/01/12 11:08:25;;;;;;;;;;;;;;;0.44;98.37;97524.28;5030899;28;19958;-72
2024/01/12 11:10:53;;;;;;;;;;;;;;;0.36;100.00;97527.50;5047558;28;19937;-72
2024/01/12 11:13:19;;;;;;;;;;;;;;;0.33;100.00;97543.22;5047280;28;20248;-72
2024/01/12 11:15:50;;;;;;;;;;;;;;;0.32;100.00;97541.59;5047365;28;19939;-71
2024/01/12 11:18:17;;;;;;;;;;;;;;;0.35;100.00;97553.44;5046980;28;20018;-71
2024/01/12 11:20:44;;;;;;;;;;;;;;;0.43;100.00;97543.31;5047895;28;20215;-70
2024/01/12 11:23:11;;;;;;;;;;;;;;;0.58;100.00;97551.53;5047245;28;19941;-71
2024/01/12 11:25:37;;;;;;;;;;;;;;;0.71;100.00;97544.38;5046569;28;19938;-71
2024/01/12 11:28:03;;;;;;;;;;;;;;;0.76;100.00;97538.84;5064948;28;19944;-71
2024/01/12 11:30:29;;;;;;;;;;;;;;;0.89;100.00;97549.78;5065075;28;19939;-71
2024/01/12 11:33:02;;;;;;;;;;;;;;;1.13;100.00;97553.81;5065564;28;19944;-71
2024/01/12 11:35:29;;;;;;;;;;;;;;;1.31;100.00;97544.47;5064773;28;19951;-71
2024/01/12 11:38:00;;;;;;;;;;;;;;;1.58;96.80;97512.03;5064648;28;19937;-71
2024/01/12 11:40:27;;;;;;;;;;;;;;;1.73;99.71;97521.00;5046651;28;19958;-71
2024/01/12 11:42:53;;;;;;;;;;;;;;;1.79;97.99;97498.97;5065171;28;20178;-70
2024/01/12 11:45:19;;;;;;;;;;;;;;;1.85;94.53;97482.06;5065092;28;19937;-78
2024/01/12 11:47:45;;;;;;;;;;;;;;;1.89;94.72;97479.09;5064532;28;20227;-78
2024/01/12 11:50:12;;;;;;;;;;;;;;;1.93;92.00;97466.66;5065040;28;19932;-78
2024/01/12 11:52:38;;;;;;;;;;;;;;;1.92;95.09;97475.41;5046521;28;20140;-78
2024/01/12 11:55:07;;;;;;;;;;;;;;;2.00;92.72;97465.19;5046643;28;19936;-78
2024/01/12 11:57:37;;;;;;;;;;;;;;;2.13;92.60;97465.69;5046372;28;19947;-79
2024/01/12 12:00:03;;;;;;;;;;;;;;;2.24;90.39;97451.78;5046389;28;19955;-78
2024/01/12 12:02:29;;;;;;;;;;;;;;;2.35;92.12;97461.97;5064205;28;19942;-70
2024/01/12 12:04:55;;;;;;;;;;;;;;;2.41;90.59;97460.56;5047381;28;19950;-69
2024/01/12 12:07:27;;;;;;;;;;;;;;;2.21;92.58;97452.88;5064338;28;19966;-70
2024/01/12 12:09:53;;;;;;;;;;;;;;;2.13;93.76;97467.47;5046448;28;19956;-69
2024/01/12 12:12:22;;;;;;;;;;;;;;;2.17;94.80;97482.56;5064779;28;19942;-70
2024/01/12 12:15:05;;;;;;;;;;;;;;;2.17;93.10;97467.03;5064607;28;19939;-70
2024/01/12 12:17:31;;;;;;;;;;;;;;;1.91;92.19;97448.72;5063814;28;20274;-70
2024/01/12 12:19:57;;;;;;;;;;;;;;;1.69;94.95;97470.50;5063937;28;19955;-79
2024/01/12 12:22:24;;;;;;;;;;;;;;;1.58;96.44;97476.63;5046852;28;19952;-74
2024/01/12 12:24:50;;;;;;;;;;;;;;;1.59;96.76;97473.09;5030282;28;19940;-79
2024/01/12 12:27:17;;;;;;;;;;;;;;;1.58;94.81;97462.91;5064072;28;20317;-77
2024/01/12 12:29:45;;;;;;;;;;;;;;;1.61;94.99;97463.41;5064396;28;19948;-77
2024/01/12 12:32:12;;;;;;;;;;;;;;;1.62;94.07;97449.56;5063794;28;19945;-78
2024/01/12 12:34:39;;;;;;;;;;;;;;;1.65;96.52;97470.91;5064260;28;19950;-78